Time;durP1;ratioP1;P1;durP2;ratioP2;P2;SDS_P1;SDS_P2;PMS_P1;PMS_P2;Temp;Humidity;BMP_temperature;BMP_pressure;BME280_temperature;BME280_humidity;BME280_pressure;Samples;Min_cycle;Max_cycle;Signal;HPM_P1;HPM_P2
2021/07/21 00:02:14;;;;;;;9.03;6.37;;;16.40;99.90;;;;;;5073840;28;20442;-88
2021/07/21 00:04:42;;;;;;;11.30;6.03;;;16.40;99.90;;;;;;5073477;28;20445;-87
2021/07/21 00:07:11;;;;;;;9.70;6.77;;;16.30;99.90;;;;;;5073970;28;20459;-88
2021/07/21 00:09:38;;;;;;;13.13;6.37;;;16.40;99.90;;;;;;5073980;28;20453;-88
2021/07/21 00:14:50;;;;;;;8.70;6.00;;;16.30;99.90;;;;;;5074172;28;20412;-87
2021/07/21 00:17:22;;;;;;;9.07;5.77;;;16.30;99.90;;;;;;5074243;28;20468;-88
2021/07/21 00:20:06;;;;;;;13.03;5.90;;;16.30;99.90;;;;;;5074060;28;20477;-88
2021/07/21 00:22:34;;;;;;;7.03;5.03;;;16.30;99.90;;;;;;5073969;28;20928;-88
2021/07/21 00:25:01;;;;;;;7.07;5.60;;;16.20;99.90;;;;;;5074098;28;20455;-88
2021/07/21 00:27:28;;;;;;;7.53;5.60;;;16.20;99.90;;;;;;5073977;28;20936;-88
2021/07/21 00:29:55;;;;;;;9.13;6.10;;;16.20;99.90;;;;;;5073732;28;20863;-88
2021/07/21 00:32:21;;;;;;;11.17;6.37;;;16.10;99.90;;;;;;5073927;28;20452;-88
2021/07/21 00:34:50;;;;;;;8.07;5.40;;;16.10;99.90;;;;;;5073998;28;20492;-88
2021/07/21 00:37:16;;;;;;;9.40;5.80;;;16.10;99.90;;;;;;5073743;28;20448;-87
2021/07/21 00:39:43;;;;;;;7.17;5.30;;;16.10;99.90;;;;;;5073836;28;20994;-88
2021/07/21 00:42:10;;;;;;;9.30;6.20;;;16.00;99.90;;;;;;5074022;28;20809;-87
2021/07/21 00:44:36;;;;;;;7.97;6.40;;;16.00;99.90;;;;;;5074139;28;20829;-87
2021/07/21 00:47:04;;;;;;;10.17;6.50;;;16.00;99.90;;;;;;5073623;28;20433;-88
2021/07/21 00:49:31;;;;;;;9.43;5.93;;;15.90;99.90;;;;;;5073633;28;20455;-88
2021/07/21 00:52:03;;;;;;;8.93;5.47;;;16.00;99.90;;;;;;5073693;28;20433;-88
2021/07/21 00:54:31;;;;;;;7.07;5.97;;;16.00;99.90;;;;;;5074214;28;20514;-88
2021/07/21 00:56:58;;;;;;;11.63;5.90;;;16.00;99.90;;;;;;5073720;28;20453;-88
2021/07/21 00:59:26;;;;;;;10.67;6.30;;;15.90;99.90;;;;;;5073445;28;20460;-87
2021/07/21 01:01:52;;;;;;;9.00;6.50;;;15.90;99.90;;;;;;5073788;28;20815;-88
2021/07/21 01:04:19;;;;;;;8.77;5.63;;;15.90;99.90;;;;;;5073580;28;20437;-87
2021/07/21 01:06:46;;;;;;;8.43;5.90;;;15.90;99.90;;;;;;5073471;28;20928;-87
2021/07/21 01:09:14;;;;;;;9.13;6.77;;;15.90;99.90;;;;;;5073262;28;20464;-87
2021/07/21 01:11:45;;;;;;;8.60;5.83;;;15.90;99.90;;;;;;5073614;28;20449;-87
2021/07/21 01:14:17;;;;;;;9.90;6.53;;;15.90;99.90;;;;;;5073660;28;20476;-87
2021/07/21 01:16:48;;;;;;;11.10;6.20;;;15.90;99.90;;;;;;5077321;28;20478;-87
2021/07/21 01:19:18;;;;;;;8.37;6.10;;;15.90;99.90;;;;;;5077171;28;20459;-87
2021/07/21 01:22:12;;;;;;;8.33;5.77;;;15.90;99.90;;;;;;5078343;28;20444;-88
2021/07/21 01:25:03;;;;;;;8.90;6.30;;;15.90;99.90;;;;;;5063641;28;20448;-88
2021/07/21 01:27:33;;;;;;;10.00;6.30;;;15.90;99.90;;;;;;5078448;28;20425;-88
2021/07/21 01:30:08;;;;;;;9.77;6.63;;;15.80;99.90;;;;;;5077350;28;20477;-88
2021/07/21 01:32:39;;;;;;;9.40;6.80;;;15.80;99.90;;;;;;5077624;28;20429;-87
2021/07/21 01:35:12;;;;;;;10.30;6.10;;;15.70;99.90;;;;;;5076772;28;20472;-84
2021/07/21 01:37:43;;;;;;;9.03;6.10;;;15.70;99.90;;;;;;5075827;28;20433;-84
2021/07/21 01:40:19;;;;;;;9.40;6.77;;;15.70;99.90;;;;;;5076361;28;20460;-84
2021/07/21 01:42:50;;;;;;;11.87;6.33;;;15.70;99.90;;;;;;5076046;28;20436;-84
2021/07/21 01:45:17;;;;;;;7.20;5.50;;;15.70;99.90;;;;;;5075824;28;20889;-84
2021/07/21 01:47:46;;;;;;;10.93;6.43;;;15.70;99.90;;;;;;5075916;28;20452;-84
2021/07/21 01:50:14;;;;;;;7.90;6.23;;;15.70;99.90;;;;;;5076188;28;20465;-84
2021/07/21 01:52:43;;;;;;;7.63;5.83;;;15.70;99.90;;;;;;5076042;28;20464;-84
2021/07/21 01:55:11;;;;;;;6.60;5.60;;;15.70;99.90;;;;;;5075635;28;20481;-84
2021/07/21 01:57:38;;;;;;;10.43;6.37;;;15.70;99.90;;;;;;5075761;28;20458;-84
2021/07/21 02:00:11;;;;;;;7.20;6.20;;;15.60;99.90;;;;;;5075892;28;20472;-84
2021/07/21 02:02:39;;;;;;;9.93;6.60;;;15.60;99.90;;;;;;5075941;28;20429;-84
2021/07/21 02:05:07;;;;;;;9.77;6.33;;;15.60;99.90;;;;;;5075550;28;20445;-84
2021/07/21 02:07:35;;;;;;;8.80;5.80;;;15.60;99.90;;;;;;5075235;28;20547;-84
2021/07/21 02:10:05;;;;;;;9.40;5.60;;;15.60;99.90;;;;;;5075081;28;20460;-84
2021/07/21 02:12:34;;;;;;;10.70;6.77;;;15.50;99.90;;;;;;5076210;28;20448;-84
2021/07/21 02:15:01;;;;;;;11.43;6.57;;;15.50;99.90;;;;;;5075302;28;20495;-84
2021/07/21 02:17:30;;;;;;;7.73;6.07;;;15.50;99.90;;;;;;5075372;28;20448;-84
2021/07/21 02:19:57;;;;;;;10.00;6.27;;;15.50;99.90;;;;;;5075211;28;20475;-84
2021/07/21 02:22:24;;;;;;;8.70;6.00;;;15.50;99.90;;;;;;5074923;28;20444;-84
2021/07/21 02:24:52;;;;;;;9.70;5.63;;;15.50;99.90;;;;;;5075138;28;20441;-84
2021/07/21 02:27:19;;;;;;;8.90;6.40;;;15.50;99.90;;;;;;5074430;28;20940;-87
2021/07/21 02:29:46;;;;;;;10.17;5.80;;;15.40;99.90;;;;;;5084232;28;20499;-87
2021/07/21 02:32:19;;;;;;;6.70;5.70;;;15.40;99.90;;;;;;5075885;28;20940;-88
2021/07/21 02:34:47;;;;;;;8.23;5.50;;;15.50;99.90;;;;;;5075798;28;20461;-87
2021/07/21 02:37:15;;;;;;;8.87;6.00;;;15.40;99.90;;;;;;5075632;28;20459;-88
2021/07/21 02:39:44;;;;;;;11.47;6.13;;;15.40;99.90;;;;;;5075463;28;20980;-87
2021/07/21 02:42:11;;;;;;;8.67;5.57;;;15.40;99.90;;;;;;5075813;28;20491;-89
2021/07/21 02:44:38;;;;;;;9.80;6.13;;;15.40;99.90;;;;;;5075559;28;20449;-87
2021/07/21 02:47:05;;;;;;;7.03;5.70;;;15.30;99.90;;;;;;5075523;28;20928;-88
2021/07/21 02:49:32;;;;;;;8.37;6.60;;;15.30;99.90;;;;;;5075428;28;20472;-87
2021/07/21 02:52:08;;;;;;;11.17;6.90;;;15.30;99.90;;;;;;5075568;28;20819;-88
2021/07/21 02:54:40;;;;;;;11.83;6.70;;;15.20;99.90;;;;;;5075474;28;20473;-87
2021/07/21 02:57:11;;;;;;;11.20;7.00;;;15.20;99.90;;;;;;5075432;28;20433;-87
2021/07/21 02:59:43;;;;;;;10.50;6.80;;;15.20;99.90;;;;;;5075529;28;20473;-87
2021/07/21 03:02:10;;;;;;;8.50;6.10;;;15.20;99.90;;;;;;5074898;28;20457;-87
2021/07/21 03:04:39;;;;;;;16.40;7.53;;;15.20;99.90;;;;;;5075077;28;20788;-87
2021/07/21 03:07:09;;;;;;;12.30;6.70;;;15.20;99.90;;;;;;5075090;28;20445;-88
2021/07/21 03:09:37;;;;;;;11.00;6.40;;;15.10;99.90;;;;;;5074963;28;20472;-87
2021/07/21 03:12:08;;;;;;;8.10;5.97;;;15.10;99.90;;;;;;5075313;28;20452;-87
2021/07/21 03:14:41;;;;;;;9.10;5.83;;;15.10;99.90;;;;;;5074491;28;20465;-87
2021/07/21 03:17:13;;;;;;;12.03;6.77;;;15.00;99.90;;;;;;5075060;28;20437;-88
2021/07/21 03:19:44;;;;;;;9.77;6.10;;;15.00;99.90;;;;;;5073810;28;20472;-84
2021/07/21 03:22:13;;;;;;;7.70;6.10;;;15.00;99.90;;;;;;5074603;28;20433;-84
2021/07/21 03:24:43;;;;;;;10.47;6.73;;;15.00;99.90;;;;;;5074015;28;20450;-84
2021/07/21 03:27:11;;;;;;;9.87;6.50;;;15.00;99.90;;;;;;5074224;28;20437;-85
2021/07/21 03:29:38;;;;;;;10.80;6.77;;;14.90;99.90;;;;;;5073807;28;20488;-85
2021/07/21 03:32:08;;;;;;;10.33;6.60;;;14.90;99.90;;;;;;5074103;28;20452;-85
2021/07/21 03:34:37;;;;;;;8.47;6.60;;;14.80;99.90;;;;;;5073935;28;20487;-85
2021/07/21 03:37:07;;;;;;;11.00;6.40;;;14.80;99.90;;;;;;5073668;28;20448;-85
2021/07/21 03:39:37;;;;;;;12.20;6.10;;;14.80;99.90;;;;;;5074220;28;20486;-85
2021/07/21 03:42:05;;;;;;;8.07;5.60;;;14.80;99.90;;;;;;5073725;28;20433;-85
2021/07/21 03:44:33;;;;;;;7.77;5.83;;;14.70;99.90;;;;;;5073932;28;20445;-85
2021/07/21 03:47:00;;;;;;;9.10;6.27;;;14.70;99.90;;;;;;5073809;28;20527;-85
2021/07/21 03:49:29;;;;;;;10.73;6.30;;;14.70;99.90;;;;;;5073832;28;20469;-85
2021/07/21 03:51:56;;;;;;;10.50;7.00;;;14.70;99.90;;;;;;5073833;28;20449;-85
2021/07/21 03:54:24;;;;;;;8.87;6.40;;;14.60;99.90;;;;;;5073637;28;20586;-85
2021/07/21 03:56:52;;;;;;;12.83;6.50;;;14.70;99.90;;;;;;5073741;28;20453;-85
2021/07/21 03:59:20;;;;;;;9.93;7.00;;;14.70;99.90;;;;;;5073375;28;20805;-85
2021/07/21 04:01:49;;;;;;;9.57;6.33;;;14.60;99.90;;;;;;5073617;28;20526;-85
2021/07/21 04:04:20;;;;;;;19.53;6.53;;;14.60;99.90;;;;;;5073588;28;20520;-85
2021/07/21 04:06:47;;;;;;;9.13;6.20;;;14.60;99.90;;;;;;5073655;28;20437;-85
2021/07/21 04:09:16;;;;;;;11.33;6.33;;;14.60;99.90;;;;;;5074136;28;20469;-85
2021/07/21 04:11:45;;;;;;;7.20;5.90;;;14.60;99.90;;;;;;5073143;28;20451;-85
2021/07/21 04:14:16;;;;;;;10.40;6.83;;;14.60;99.90;;;;;;5073299;28;20488;-85
2021/07/21 04:16:44;;;;;;;8.70;5.97;;;14.60;99.90;;;;;;5073127;28;20452;-85
2021/07/21 04:19:14;;;;;;;11.70;5.90;;;14.60;99.90;;;;;;5073199;28;20823;-85
2021/07/21 04:21:43;;;;;;;8.00;5.60;;;14.70;99.90;;;;;;5073757;28;20944;-85
2021/07/21 04:24:11;;;;;;;10.07;6.47;;;14.70;99.90;;;;;;5073462;28;20445;-85
2021/07/21 04:26:39;;;;;;;11.97;6.50;;;14.70;99.90;;;;;;5073484;28;20452;-85
2021/07/21 04:29:07;;;;;;;9.67;6.27;;;14.70;99.90;;;;;;5073124;28;20496;-85
2021/07/21 04:31:37;;;;;;;9.03;6.70;;;14.80;99.90;;;;;;5073125;28;20909;-85
2021/07/21 04:34:05;;;;;;;9.73;7.00;;;14.80;99.90;;;;;;5072945;28;20611;-85
2021/07/21 04:36:34;;;;;;;8.23;5.87;;;14.90;99.90;;;;;;5073317;28;20441;-85
2021/07/21 04:39:01;;;;;;;7.30;5.90;;;14.90;99.90;;;;;;5072904;28;20465;-85
2021/07/21 04:41:29;;;;;;;8.63;5.80;;;14.90;99.90;;;;;;5073075;28;20931;-85
2021/07/21 04:43:56;;;;;;;9.67;7.07;;;14.90;99.90;;;;;;5073246;28;20445;-85
2021/07/21 04:46:23;;;;;;;10.13;6.50;;;15.00;99.90;;;;;;5073700;28;20861;-86
2021/07/21 04:48:52;;;;;;;9.67;7.37;;;15.00;99.90;;;;;;5073263;28;20452;-86
2021/07/21 04:51:23;;;;;;;13.07;8.87;;;15.10;99.90;;;;;;5076932;28;20445;-86
2021/07/21 04:53:55;;;;;;;13.73;6.77;;;15.10;99.90;;;;;;5076872;28;20428;-86
2021/07/21 04:56:22;;;;;;;15.23;7.07;;;15.20;99.90;;;;;;5077041;28;20427;-86
2021/07/21 04:58:49;;;;;;;9.37;6.90;;;15.20;99.90;;;;;;5076682;28;20445;-85
2021/07/21 05:01:16;;;;;;;11.73;7.17;;;15.20;99.90;;;;;;5076795;28;20437;-85
2021/07/21 05:03:43;;;;;;;14.93;6.80;;;15.20;99.90;;;;;;5076943;28;20456;-85
2021/07/21 05:06:12;;;;;;;10.00;6.70;;;15.20;99.90;;;;;;5077009;28;20440;-86
2021/07/21 05:08:39;;;;;;;11.90;7.00;;;15.30;99.90;;;;;;5076590;28;20959;-85
2021/07/21 05:11:06;;;;;;;10.43;7.67;;;15.30;99.90;;;;;;5076510;28;20494;-86
2021/07/21 05:13:40;;;;;;;13.90;7.20;;;15.40;99.90;;;;;;5076419;28;20924;-86
2021/07/21 05:16:07;;;;;;;9.13;6.20;;;15.40;99.90;;;;;;5076561;28;20472;-86
2021/07/21 05:18:34;;;;;;;10.90;6.67;;;15.50;99.90;;;;;;5076641;28;20457;-85
2021/07/21 05:21:01;;;;;;;9.30;6.53;;;15.50;99.90;;;;;;5076659;28;20433;-87
2021/07/21 05:23:30;;;;;;;11.20;6.57;;;15.50;99.90;;;;;;5076592;28;20464;-86
2021/07/21 05:25:56;;;;;;;9.60;6.30;;;15.50;99.90;;;;;;5076353;28;20924;-86
2021/07/21 05:28:23;;;;;;;9.00;5.90;;;15.60;99.90;;;;;;5076865;28;20797;-86
2021/07/21 05:30:50;;;;;;;9.83;7.23;;;15.60;99.90;;;;;;5076005;28;20849;-86
2021/07/21 05:33:17;;;;;;;12.87;7.30;;;15.70;99.90;;;;;;5076768;28;20448;-86
2021/07/21 05:35:45;;;;;;;8.80;6.43;;;15.70;99.90;;;;;;5076405;28;20483;-86
2021/07/21 05:38:12;;;;;;;10.73;7.40;;;15.70;99.90;;;;;;5077185;28;20459;-86
2021/07/21 05:40:40;;;;;;;8.20;6.93;;;15.70;99.90;;;;;;5076355;28;20468;-87
2021/07/21 05:43:07;;;;;;;11.17;7.00;;;15.80;99.90;;;;;;5076484;28;20444;-86
2021/07/21 05:45:34;;;;;;;11.40;7.40;;;15.90;99.90;;;;;;5076146;28;20433;-86
2021/07/21 05:48:00;;;;;;;10.80;6.73;;;15.90;99.90;;;;;;5076419;28;20449;-86
2021/07/21 05:50:27;;;;;;;13.03;7.10;;;16.00;99.90;;;;;;5075926;28;20483;-86
2021/07/21 05:52:54;;;;;;;13.17;8.20;;;16.10;99.90;;;;;;5076323;28;20814;-86
2021/07/21 05:55:21;;;;;;;12.10;7.17;;;16.20;99.90;;;;;;5076226;28;20469;-86
2021/07/21 05:57:49;;;;;;;9.67;7.40;;;16.30;99.90;;;;;;5076090;28;20452;-86
2021/07/21 06:00:16;;;;;;;9.50;7.83;;;16.40;99.90;;;;;;5075896;28;20552;-86
2021/07/21 06:02:43;;;;;;;11.60;7.40;;;16.40;99.90;;;;;;5075988;28;20448;-86
2021/07/21 06:05:11;;;;;;;13.23;6.50;;;16.60;99.90;;;;;;5076448;28;20441;-86
2021/07/21 06:07:38;;;;;;;12.20;7.50;;;16.70;99.90;;;;;;5076205;28;20448;-86
2021/07/21 06:10:06;;;;;;;11.80;7.77;;;16.80;99.90;;;;;;5075829;28;20453;-87
2021/07/21 06:12:33;;;;;;;12.10;7.20;;;16.90;99.90;;;;;;5075794;28;20928;-86
2021/07/21 06:15:03;;;;;;;14.30;8.40;;;17.00;99.90;;;;;;5075807;28;20483;-86
2021/07/21 06:17:29;;;;;;;13.47;7.10;;;17.10;99.90;;;;;;5076063;28;20808;-87
2021/07/21 06:19:56;;;;;;;11.10;7.40;;;17.30;99.90;;;;;;5075563;28;20469;-86
2021/07/21 06:22:23;;;;;;;10.07;7.40;;;17.40;99.90;;;;;;5076028;28;20441;-87
2021/07/21 06:24:50;;;;;;;9.80;7.20;;;17.60;99.90;;;;;;5076423;28;20917;-86
2021/07/21 06:27:16;;;;;;;9.73;7.30;;;17.70;99.90;;;;;;5075666;28;20460;-86
2021/07/21 06:29:43;;;;;;;12.23;7.57;;;17.90;99.90;;;;;;5075063;28;20468;-86
2021/07/21 06:32:11;;;;;;;9.43;7.80;;;18.00;99.90;;;;;;5075775;28;20452;-86
2021/07/21 06:34:38;;;;;;;9.63;6.80;;;18.20;99.90;;;;;;5075256;28;20451;-86
2021/07/21 06:37:08;;;;;;;12.47;8.07;;;18.30;99.90;;;;;;5075431;28;20457;-86
2021/07/21 06:39:34;;;;;;;14.47;8.40;;;18.40;99.90;;;;;;5075188;28;20469;-86
2021/07/21 06:42:01;;;;;;;11.67;7.00;;;18.50;99.90;;;;;;5075326;28;20453;-86
2021/07/21 06:44:28;;;;;;;12.17;7.50;;;18.60;99.90;;;;;;5083925;28;20449;-86
2021/07/21 06:46:55;;;;;;;12.97;7.17;;;18.60;99.90;;;;;;5075201;28;20448;-86
2021/07/21 06:49:23;;;;;;;8.53;7.63;;;18.80;99.90;;;;;;5074941;28;20968;-85
2021/07/21 06:51:49;;;;;;;11.23;7.50;;;18.90;99.90;;;;;;5075079;28;20453;-85
2021/07/21 06:54:16;;;;;;;11.47;7.53;;;19.00;99.90;;;;;;5075786;28;20449;-86
2021/07/21 06:56:43;;;;;;;14.30;8.23;;;19.10;99.90;;;;;;5075754;28;20488;-89
2021/07/21 06:59:10;;;;;;;9.03;6.70;;;19.10;99.90;;;;;;5077778;28;20468;-88
2021/07/21 07:01:36;;;;;;;10.93;6.70;;;19.30;99.90;;;;;;5076710;28;20940;-89
2021/07/21 07:04:03;;;;;;;10.67;7.03;;;19.50;99.90;;;;;;5077024;28;20452;-89
2021/07/21 07:06:31;;;;;;;8.40;6.67;;;19.70;99.90;;;;;;5076133;28;20487;-89
2021/07/21 07:08:58;;;;;;;10.87;7.03;;;19.70;99.90;;;;;;5075376;28;20544;-89
2021/07/21 07:11:25;;;;;;;9.90;8.10;;;19.80;99.90;;;;;;5076882;28;20927;-89
2021/07/21 07:13:52;;;;;;;10.37;7.20;;;19.90;99.90;;;;;;5075770;28;20445;-89
2021/07/21 07:16:19;;;;;;;11.57;7.10;;;20.10;99.90;;;;;;5076186;28;20483;-89
2021/07/21 07:18:45;;;;;;;10.33;6.93;;;20.20;99.90;;;;;;5076212;28;20953;-90
2021/07/21 07:21:12;;;;;;;10.83;7.20;;;20.30;99.90;;;;;;5076097;28;20452;-89
2021/07/21 07:23:40;;;;;;;10.47;7.20;;;20.60;99.90;;;;;;5076345;28;20435;-89
2021/07/21 07:26:07;;;;;;;9.00;6.30;;;20.70;99.90;;;;;;5076084;28;20808;-90
2021/07/21 07:28:34;;;;;;;8.43;6.60;;;20.80;99.90;;;;;;5075187;28;20788;-90
2021/07/21 07:31:01;;;;;;;9.53;7.50;;;20.80;99.90;;;;;;5076003;28;20451;-90
2021/07/21 07:33:28;;;;;;;13.27;7.90;;;21.00;99.90;;;;;;5075595;28;20491;-87
2021/07/21 07:35:55;;;;;;;9.30;6.83;;;21.00;99.90;;;;;;5074156;28;20487;-85
2021/07/21 07:38:21;;;;;;;10.83;6.70;;;21.10;99.90;;;;;;5075163;28;20923;-89
2021/07/21 07:40:50;;;;;;;10.13;6.07;;;21.20;99.90;;;;;;5075590;28;20472;-89
2021/07/21 07:43:16;;;;;;;13.53;7.13;;;21.50;99.90;;;;;;5075348;28;20513;-88
2021/07/21 07:45:43;;;;;;;9.40;7.37;;;21.70;99.90;;;;;;5075607;28;20811;-89
2021/07/21 07:48:10;;;;;;;8.10;5.80;;;21.90;99.90;;;;;;5075506;28;20448;-89
2021/07/21 07:50:37;;;;;;;9.00;6.80;;;22.00;99.90;;;;;;5074993;28;20855;-90
2021/07/21 07:53:04;;;;;;;11.13;6.50;;;22.20;99.90;;;;;;5075115;28;20982;-89
2021/07/21 07:55:34;;;;;;;7.53;6.00;;;22.30;99.90;;;;;;5075145;28;20468;-90
2021/07/21 07:58:03;;;;;;;7.40;6.60;;;22.70;99.90;;;;;;5075139;28;20432;-88
2021/07/21 08:00:31;;;;;;;8.73;6.30;;;22.90;99.90;;;;;;5075360;28;20978;-87
2021/07/21 08:02:58;;;;;;;9.37;6.40;;;23.30;99.90;;;;;;5074951;28;20205;-89
2021/07/21 08:05:25;;;;;;;8.23;5.97;;;23.70;99.90;;;;;;5074848;28;20201;-88
2021/07/21 08:07:52;;;;;;;7.68;6.88;;;24.00;99.90;;;;;;5074448;28;20206;-88
2021/07/21 08:10:20;;;;;;;10.35;6.35;;;24.30;99.90;;;;;;5074980;28;20229;-88
2021/07/21 08:12:47;;;;;;;7.35;6.00;;;24.90;99.90;;;;;;5074597;28;20201;-89
2021/07/21 08:15:15;;;;;;;9.73;6.25;;;25.10;99.90;;;;;;5074522;28;20294;-89
2021/07/21 08:17:42;;;;;;;6.82;5.88;;;25.50;99.80;;;;;;5075024;28;20198;-88
2021/07/21 08:20:12;;;;;;;8.35;6.28;;;25.50;99.50;;;;;;5074534;28;20267;-90
2021/07/21 08:22:42;;;;;;;8.48;5.55;;;25.50;99.30;;;;;;5074403;28;20202;-86
2021/07/21 08:25:10;;;;;;;7.05;6.25;;;25.50;99.30;;;;;;5076279;28;20209;-88
2021/07/21 08:27:38;;;;;;;7.40;6.00;;;25.30;99.10;;;;;;5078742;28;20202;-87
2021/07/21 08:30:09;;;;;;;7.25;6.50;;;25.30;99.90;;;;;;5078050;28;20748;-88
2021/07/21 08:32:37;;;;;;;10.38;6.88;;;25.50;98.00;;;;;;5077847;28;20186;-88
2021/07/21 08:35:05;;;;;;;7.68;6.50;;;25.20;98.40;;;;;;5078242;28;20209;-89
2021/07/21 08:37:31;;;;;;;8.18;6.40;;;25.10;99.30;;;;;;5078154;28;20204;-88
2021/07/21 08:39:58;;;;;;;8.43;7.32;;;25.20;97.90;;;;;;5078474;28;20696;-88
2021/07/21 08:42:26;;;;;;;7.57;6.45;;;25.30;96.80;;;;;;5078316;28;20206;-88
2021/07/21 08:44:52;;;;;;;7.07;6.47;;;25.40;96.90;;;;;;5078280;28;20201;-90
2021/07/21 08:47:19;;;;;;;7.30;6.50;;;25.10;98.40;;;;;;5078228;28;20202;-88
2021/07/21 08:49:47;;;;;;;7.28;6.57;;;25.10;98.40;;;;;;5077836;28;20226;-88
2021/07/21 08:52:16;;;;;;;7.10;6.40;;;25.10;97.60;;;;;;5077915;28;20202;-87
2021/07/21 08:54:47;;;;;;;6.93;6.13;;;24.90;98.10;;;;;;5077795;28;20202;-89
2021/07/21 08:57:15;;;;;;;10.38;7.80;;;24.90;97.90;;;;;;5077465;28;20218;-88
2021/07/21 08:59:44;;;;;;;11.18;6.93;;;25.10;96.40;;;;;;5077524;28;20253;-86
2021/07/21 09:02:11;;;;;;;10.52;7.45;;;24.80;95.40;;;;;;5076989;28;20198;-88
2021/07/21 09:04:39;;;;;;;7.80;6.28;;;24.50;96.20;;;;;;5077409;28;20197;-88
2021/07/21 09:07:08;;;;;;;6.10;5.43;;;24.70;97.20;;;;;;5077347;28;20213;-89
2021/07/21 09:09:35;;;;;;;9.02;6.13;;;24.80;95.90;;;;;;5077068;28;20214;-88
2021/07/21 09:12:02;;;;;;;8.13;6.95;;;24.80;96.00;;;;;;5077417;28;20666;-88
2021/07/21 09:14:30;;;;;;;8.07;6.05;;;24.80;95.60;;;;;;5077553;28;20684;-88
2021/07/21 09:17:11;;;;;;;6.68;6.05;;;24.80;97.50;;;;;;5077290;28;20264;-89
2021/07/21 09:19:42;;;;;;;8.23;6.38;;;25.10;95.10;;;;;;5077175;28;20222;-88
2021/07/21 09:22:19;;;;;;;9.05;7.43;;;25.10;95.50;;;;;;5077227;28;20190;-90
2021/07/21 09:24:47;;;;;;;7.43;5.93;;;25.20;94.60;;;;;;5077128;28;20197;-87
2021/07/21 09:27:14;;;;;;;6.90;6.30;;;25.40;93.70;;;;;;5079411;28;20198;-88
2021/07/21 09:29:42;;;;;;;8.55;6.35;;;25.20;93.80;;;;;;5081561;28;20601;-87
2021/07/21 09:32:09;;;;;;;7.63;6.18;;;25.40;93.50;;;;;;5077365;28;20251;-87
2021/07/21 09:34:36;;;;;;;7.45;6.68;;;25.50;92.30;;;;;;5076754;28;20232;-87
2021/07/21 09:37:05;;;;;;;10.13;6.65;;;25.40;92.60;;;;;;5076338;28;20226;-88
2021/07/21 09:39:36;;;;;;;7.25;5.88;;;25.30;91.30;;;;;;5076294;28;20731;-88
2021/07/21 09:42:03;;;;;;;7.10;6.40;;;25.40;90.40;;;;;;5076653;28;20194;-88
2021/07/21 09:44:35;;;;;;;8.48;6.97;;;25.40;92.10;;;;;;5076494;28;20690;-89
2021/07/21 09:47:13;;;;;;;6.85;6.15;;;25.30;92.50;;;;;;5076844;28;20699;-88
2021/07/21 09:49:40;;;;;;;7.85;6.13;;;25.50;91.00;;;;;;5077307;28;20228;-88
2021/07/21 09:52:20;;;;;;;9.30;6.22;;;25.50;92.10;;;;;;5076667;28;20213;-88
2021/07/21 09:55:07;;;;;;;8.18;7.38;;;25.60;91.30;;;;;;5076309;28;20189;-88
2021/07/21 09:57:34;;;;;;;7.05;6.35;;;25.60;90.60;;;;;;5076221;28;20700;-89
2021/07/21 10:00:17;;;;;;;8.75;6.93;;;25.70;90.60;;;;;;5077369;28;20570;-90
2021/07/21 10:02:44;;;;;;;8.75;6.97;;;25.70;91.20;;;;;;5081162;28;20193;-89
2021/07/21 10:05:11;;;;;;;7.65;6.80;;;25.80;90.20;;;;;;5082770;28;20202;-88
2021/07/21 10:07:49;;;;;;;9.70;6.53;;;25.80;91.20;;;;;;5077790;28;20209;-88
2021/07/21 10:10:19;;;;;;;8.75;6.13;;;26.00;89.00;;;;;;5076907;28;20225;-89
2021/07/21 10:12:58;;;;;;;7.30;6.30;;;26.40;89.20;;;;;;5076880;28;20218;-89
2021/07/21 10:15:26;;;;;;;9.65;6.90;;;26.70;89.40;;;;;;5076693;28;20186;-89
2021/07/21 10:18:13;;;;;;;9.82;6.82;;;26.70;88.70;;;;;;5077168;28;20221;-89
2021/07/21 10:20:41;;;;;;;9.32;6.40;;;26.90;88.60;;;;;;5075966;28;20233;-88
2021/07/21 10:23:09;;;;;;;7.75;6.75;;;27.10;85.80;;;;;;5077745;28;20206;-87
2021/07/21 10:25:38;;;;;;;9.15;6.95;;;27.20;86.40;;;;;;5078105;28;20206;-88
2021/07/21 10:28:06;;;;;;;10.40;6.82;;;27.30;87.60;;;;;;5077848;28;20202;-88
2021/07/21 10:30:36;;;;;;;8.23;6.78;;;27.40;87.60;;;;;;5077377;28;20249;-88
2021/07/21 10:33:05;;;;;;;11.32;7.70;;;27.50;88.50;;;;;;5078196;28;20281;-89
2021/07/21 10:35:32;;;;;;;8.80;7.18;;;28.00;84.30;;;;;;5078001;28;20190;-89
2021/07/21 10:37:59;;;;;;;8.85;6.43;;;28.10;82.10;;;;;;5077570;28;20229;-88
2021/07/21 10:40:28;;;;;;;9.68;7.55;;;28.20;82.20;;;;;;5077212;28;20245;-88
2021/07/21 10:42:59;;;;;;;10.60;7.72;;;28.20;81.40;;;;;;5077064;28;20202;-88
2021/07/21 10:45:31;;;;;;;8.77;6.35;;;28.10;80.20;;;;;;5075957;28;20209;-87
2021/07/21 10:48:04;;;;;;;9.00;6.75;;;28.20;79.70;;;;;;5075272;28;20191;-88
2021/07/21 10:50:48;;;;;;;8.02;7.22;;;28.10;79.00;;;;;;5076188;28;20226;-87
2021/07/21 10:59:23;;;;;;;9.07;8.18;;;27.90;80.80;;;;;;5074969;28;20221;-86
2021/07/21 11:01:53;;;;;;;12.05;7.07;;;27.90;77.70;;;;;;5075161;28;20186;-88
2021/07/21 11:04:22;;;;;;;11.48;8.10;;;27.60;79.70;;;;;;5075740;28;20202;-88
2021/07/21 11:06:50;;;;;;;11.20;8.15;;;27.60;79.00;;;;;;5075072;28;20231;-88
2021/07/21 11:09:23;;;;;;;9.30;7.18;;;27.50;80.90;;;;;;5075061;28;20709;-83
2021/07/21 11:11:54;;;;;;;10.52;8.05;;;27.50;81.20;;;;;;5074334;28;20232;-83
2021/07/21 11:14:24;;;;;;;8.55;7.75;;;27.50;83.00;;;;;;5074470;28;20561;-83
2021/07/21 11:16:51;;;;;;;8.18;7.38;;;27.70;81.30;;;;;;5074344;28;20225;-83
2021/07/21 11:19:46;;;;;;;8.32;7.43;;;27.50;80.50;;;;;;5074705;28;20222;-83
2021/07/21 11:22:25;;;;;;;9.68;7.93;;;27.20;81.30;;;;;;5060434;28;20213;-83
2021/07/21 11:25:10;;;;;;;9.00;7.93;;;27.00;80.40;;;;;;5074166;28;20243;-83
2021/07/21 11:27:42;;;;;;;8.70;7.05;;;26.40;84.50;;;;;;5073922;28;20210;-84
2021/07/21 11:30:32;;;;;;;9.27;8.15;;;26.30;84.30;;;;;;5073582;28;20233;-84
2021/07/21 11:33:19;;;;;;;10.77;9.20;;;26.30;84.10;;;;;;5078503;28;20205;-87
2021/07/21 11:35:48;;;;;;;8.10;7.18;;;26.20;84.70;;;;;;5074655;28;20292;-87
2021/07/21 11:38:48;;;;;;;9.90;7.75;;;26.10;87.20;;;;;;5075089;28;20225;-87
2021/07/21 11:41:49;;;;;;;8.77;7.78;;;26.20;84.90;;;;;;5075121;28;20210;-88
2021/07/21 11:44:23;;;;;;;11.20;7.88;;;26.10;83.70;;;;;;5070205;28;20198;-88
2021/07/21 11:46:51;;;;;;;10.48;7.72;;;26.00;85.50;;;;;;5075020;28;20554;-88
2021/07/21 11:49:21;;;;;;;12.57;8.48;;;25.90;85.50;;;;;;5074768;28;20226;-89
2021/07/21 11:51:53;;;;;;;11.68;8.57;;;25.90;85.70;;;;;;5075358;28;20199;-89
2021/07/21 11:54:21;;;;;;;9.98;8.57;;;26.00;83.60;;;;;;5075057;28;20179;-88
2021/07/21 11:56:49;;;;;;;10.88;8.65;;;25.90;86.00;;;;;;5074579;28;20232;-88
2021/07/21 11:59:17;;;;;;;9.88;8.88;;;25.90;86.30;;;;;;5076571;28;20229;-88
2021/07/21 12:01:44;;;;;;;10.45;8.30;;;25.70;86.60;;;;;;5076662;28;20662;-87
2021/07/21 12:04:12;;;;;;;11.02;8.25;;;25.60;87.10;;;;;;5074527;28;20229;-87
2021/07/21 12:06:42;;;;;;;8.88;7.97;;;25.60;86.80;;;;;;5074846;28;20206;-89
2021/07/21 12:09:09;;;;;;;14.73;8.25;;;25.80;85.30;;;;;;5074696;28;20222;-89
2021/07/21 12:11:36;;;;;;;10.90;7.90;;;25.90;85.20;;;;;;5075571;28;20202;-88
2021/07/21 12:14:05;;;;;;;8.13;6.78;;;25.80;86.70;;;;;;5075047;28;20227;-88
2021/07/21 12:16:36;;;;;;;10.43;7.45;;;25.70;85.40;;;;;;5074527;28;20229;-86
2021/07/21 12:19:05;;;;;;;14.23;7.90;;;25.50;87.30;;;;;;5075008;28;20588;-88
2021/07/21 12:21:36;;;;;;;10.68;8.30;;;25.40;87.30;;;;;;5074601;28;20228;-89
2021/07/21 12:24:05;;;;;;;9.60;7.45;;;25.30;88.90;;;;;;5074193;28;20668;-87
2021/07/21 12:26:40;;;;;;;10.93;7.72;;;25.20;90.00;;;;;;5073988;28;20205;-89
2021/07/21 12:29:07;;;;;;;12.65;8.85;;;25.40;85.10;;;;;;5073840;28;20237;-89
2021/07/21 12:31:34;;;;;;;12.40;7.80;;;25.30;84.40;;;;;;5074717;28;20208;-90
2021/07/21 12:34:14;;;;;;;11.02;8.13;;;25.30;85.60;;;;;;5074689;28;20198;-89
2021/07/21 12:36:48;;;;;;;9.50;8.25;;;25.10;87.50;;;;;;5074528;28;20726;-89
2021/07/21 12:39:17;;;;;;;11.20;8.98;;;25.00;87.30;;;;;;5074668;28;20222;-89
2021/07/21 12:41:44;;;;;;;10.25;8.05;;;24.90;89.90;;;;;;5074380;28;20202;-88
2021/07/21 12:44:16;;;;;;;8.07;6.93;;;25.00;89.30;;;;;;5074467;28;20204;-88
2021/07/21 12:46:43;;;;;;;11.07;8.00;;;25.10;88.80;;;;;;5074555;28;20194;-89
2021/07/21 12:49:10;;;;;;;7.97;7.18;;;25.00;88.20;;;;;;5073398;28;20712;-88
2021/07/21 12:51:38;;;;;;;8.32;7.38;;;25.10;87.70;;;;;;5073343;28;20212;-88
2021/07/21 12:54:06;;;;;;;10.88;8.38;;;25.10;87.20;;;;;;5074042;28;20213;-88
2021/07/21 12:56:33;;;;;;;11.07;9.18;;;25.00;89.20;;;;;;5074692;28;20210;-89
2021/07/21 12:59:10;;;;;;;8.40;7.53;;;25.00;89.50;;;;;;5074036;28;20566;-89
2021/07/21 13:01:37;;;;;;;8.38;7.57;;;24.90;90.60;;;;;;5074057;28;20193;-89
2021/07/21 13:04:05;;;;;;;10.30;8.05;;;24.90;91.10;;;;;;5073153;28;20225;-82